Time;durP1;ratioP1;P1;durP2;ratioP2;P2;SDS_P1;SDS_P2;PMS_P1;PMS_P2;Temp;Humidity;BMP_temperature;BMP_pressure;BME280_temperature;BME280_humidity;BME280_pressure;Samples;Min_cycle;Max_cycle;Signal;HPM_P1;HPM_P2
2024/04/18 00:01:50;;;;;;;14.85;11.35;;;20.90;99.90;;;;;;5374804;26;20015;-69
2024/04/18 00:04:17;;;;;;;23.20;13.00;;;21.00;99.90;;;;;;5377037;26;20004;-68
2024/04/18 00:06:44;;;;;;;12.98;11.10;;;21.10;99.90;;;;;;5382751;26;20412;-69
2024/04/18 00:09:12;;;;;;;12.00;10.10;;;21.10;99.90;;;;;;5378980;26;20000;-69
2024/04/18 00:11:39;;;;;;;16.40;10.45;;;21.10;99.90;;;;;;5368722;26;20003;-70
2024/04/18 00:14:06;;;;;;;11.43;9.57;;;21.20;99.90;;;;;;5388079;26;20014;-68
2024/04/18 00:16:34;;;;;;;10.27;9.13;;;21.20;99.90;;;;;;5389534;26;20004;-70
2024/04/18 00:19:01;;;;;;;11.48;9.38;;;21.20;99.90;;;;;;5386565;26;20018;-70
2024/04/18 00:21:29;;;;;;;11.63;9.77;;;21.30;99.90;;;;;;5372271;26;20056;-68
2024/04/18 00:23:56;;;;;;;14.20;10.27;;;21.40;99.90;;;;;;5375165;26;20004;-68
2024/04/18 00:26:23;;;;;;;12.68;9.02;;;21.40;99.90;;;;;;5377672;26;20016;-70
2024/04/18 00:28:51;;;;;;;11.00;8.85;;;21.40;99.90;;;;;;5387596;26;20000;-69
2024/04/18 00:31:18;;;;;;;15.35;10.85;;;21.30;99.90;;;;;;5386598;26;20014;-69
2024/04/18 00:33:47;;;;;;;11.32;9.70;;;21.30;99.90;;;;;;5385348;26;20015;-69
2024/04/18 00:36:14;;;;;;;10.07;7.97;;;21.30;99.90;;;;;;5391619;26;20395;-69
2024/04/18 00:38:41;;;;;;;16.15;10.45;;;21.40;99.90;;;;;;5390680;26;20011;-68
2024/04/18 00:41:11;;;;;;;11.25;9.05;;;21.40;99.90;;;;;;5383171;26;20004;-67
2024/04/18 00:43:39;;;;;;;10.48;9.38;;;21.40;99.90;;;;;;5406049;26;20003;-68
2024/04/18 00:46:07;;;;;;;13.85;8.52;;;21.50;99.90;;;;;;5392331;26;20015;-72
2024/04/18 00:48:35;;;;;;;43.03;13.80;;;21.60;99.90;;;;;;5378477;26;20019;-71
2024/04/18 00:51:03;;;;;;;15.18;9.93;;;21.80;99.90;;;;;;5390191;26;20383;-71
2024/04/18 00:53:31;;;;;;;10.90;9.52;;;22.10;99.90;;;;;;5371138;26;20536;-69
2024/04/18 00:55:58;;;;;;;15.85;9.73;;;22.20;99.90;;;;;;5388629;26;20003;-71
2024/04/18 00:58:27;;;;;;;14.38;9.30;;;22.40;99.90;;;;;;5393581;26;19999;-70
2024/04/18 01:00:54;;;;;;;14.45;8.50;;;22.40;99.90;;;;;;5393253;26;19992;-69
2024/04/18 01:03:22;;;;;;;17.63;9.23;;;22.60;99.90;;;;;;5391623;26;20012;-69
2024/04/18 01:05:49;;;;;;;10.13;8.52;;;22.70;99.90;;;;;;5391039;26;20003;-72
2024/04/18 01:08:17;;;;;;;13.68;8.40;;;22.70;99.90;;;;;;5393782;26;20010;-70
2024/04/18 01:10:44;;;;;;;9.55;8.23;;;22.90;99.90;;;;;;5392015;26;20015;-70
2024/04/18 01:13:11;;;;;;;9.77;7.95;;;23.00;99.90;;;;;;5384338;26;20001;-70
2024/04/18 01:15:39;;;;;;;12.48;9.07;;;23.10;99.90;;;;;;5421021;26;20045;-69
2024/04/18 01:18:06;;;;;;;22.42;9.95;;;23.00;99.90;;;;;;5389170;26;20000;-68
2024/04/18 01:20:33;;;;;;;10.00;8.90;;;23.00;99.90;;;;;;5384985;26;20003;-67
2024/04/18 01:23:01;;;;;;;12.48;9.25;;;23.00;99.90;;;;;;5386946;26;20014;-67
2024/04/18 01:25:28;;;;;;;10.57;8.32;;;23.10;99.90;;;;;;5397745;26;20456;-67
2024/04/18 01:27:55;;;;;;;11.85;8.63;;;23.30;99.90;;;;;;5395111;26;20000;-65
2024/04/18 01:30:22;;;;;;;9.40;8.00;;;23.60;99.90;;;;;;5380580;26;20040;-68
2024/04/18 01:32:50;;;;;;;10.13;8.98;;;23.80;99.90;;;;;;5393148;26;20000;-68
2024/04/18 01:35:17;;;;;;;11.43;8.82;;;24.00;99.90;;;;;;5398435;26;20018;-67
2024/04/18 01:37:45;;;;;;;8.13;6.95;;;24.00;99.90;;;;;;5397515;26;20406;-68
2024/04/18 01:40:12;;;;;;;9.82;7.32;;;24.00;99.90;;;;;;5379225;26;20001;-66
2024/04/18 01:42:39;;;;;;;11.10;8.77;;;24.10;99.90;;;;;;5378521;26;20004;-68
2024/04/18 01:45:09;;;;;;;8.30;7.18;;;24.40;99.90;;;;;;5379342;26;20015;-69
2024/04/18 01:47:36;;;;;;;10.23;8.05;;;24.80;99.90;;;;;;5381210;26;20044;-68
2024/04/18 01:50:04;;;;;;;8.88;7.85;;;24.90;99.90;;;;;;5377769;26;20077;-70
2024/04/18 01:52:31;;;;;;;10.77;7.70;;;25.30;99.90;;;;;;5381601;26;20508;-70
2024/04/18 01:54:59;;;;;;;9.88;8.10;;;25.60;99.90;;;;;;5376444;26;20818;-69
2024/04/18 01:57:26;;;;;;;515.90;83.35;;;25.70;99.90;;;;;;5384404;26;20076;-67
2024/04/18 01:59:54;;;;;;;42.63;12.73;;;25.60;99.90;;;;;;5393883;26;20006;-70
2024/04/18 02:02:21;;;;;;;9.98;8.85;;;25.50;99.90;;;;;;5403763;26;20326;-70
2024/04/18 02:04:48;;;;;;;12.55;8.45;;;25.30;99.90;;;;;;5397467;26;20019;-69
2024/04/18 02:07:15;;;;;;;10.18;8.73;;;25.30;99.90;;;;;;5375873;26;20070;-69
2024/04/18 02:09:43;;;;;;;11.82;8.88;;;25.20;99.90;;;;;;5377031;26;20004;-69
2024/04/18 02:12:10;;;;;;;9.98;8.57;;;25.00;99.90;;;;;;5386166;26;19999;-70
2024/04/18 02:14:38;;;;;;;10.55;9.02;;;24.80;99.90;;;;;;5381891;26;20048;-69
2024/04/18 02:17:05;;;;;;;13.05;10.27;;;24.60;99.90;;;;;;5385270;26;20078;-68
2024/04/18 02:19:32;;;;;;;11.43;8.63;;;24.60;99.90;;;;;;5391754;26;19999;-68
2024/04/18 02:22:00;;;;;;;11.20;8.60;;;24.80;99.90;;;;;;5380196;26;20004;-70
2024/04/18 02:24:27;;;;;;;11.05;9.77;;;24.80;99.90;;;;;;5377869;26;19996;-69
2024/04/18 02:26:54;;;;;;;9.57;8.00;;;25.00;99.90;;;;;;5378255;26;20008;-67
2024/04/18 02:29:21;;;;;;;11.90;9.48;;;25.20;99.90;;;;;;5378914;26;20011;-70
2024/04/18 02:31:49;;;;;;;12.05;8.93;;;25.50;99.90;;;;;;5364688;26;19997;-69
2024/04/18 02:34:16;;;;;;;10.38;7.47;;;25.80;99.90;;;;;;5392930;26;20004;-70
2024/04/18 02:36:43;;;;;;;11.77;8.43;;;26.30;99.90;;;;;;5396638;26;20010;-67
2024/04/18 02:39:10;;;;;;;7.88;7.07;;;26.70;99.90;;;;;;5391713;26;20065;-67
2024/04/18 02:41:38;;;;;;;12.02;8.50;;;27.30;99.90;;;;;;5392655;26;19999;-68
2024/04/18 02:44:05;;;;;;;10.07;7.55;;;28.00;99.90;;;;;;5395281;26;19994;-69
2024/04/18 02:46:34;;;;;;;13.27;7.00;;;28.50;99.90;;;;;;5411182;26;20359;-68
2024/04/18 02:49:01;;;;;;;8.52;6.72;;;29.20;98.70;;;;;;5430752;26;19998;-69
2024/04/18 02:51:28;;;;;;;7.18;6.47;;;29.80;97.90;;;;;;5396316;26;20028;-69
2024/04/18 02:53:56;;;;;;;19.23;8.55;;;30.30;96.60;;;;;;5385500;26;20487;-68
2024/04/18 02:56:23;;;;;;;8.80;6.22;;;30.30;95.70;;;;;;5379859;26;20039;-68
2024/04/18 02:58:50;;;;;;;9.70;7.47;;;30.50;95.40;;;;;;5359518;26;20011;-69
2024/04/18 03:01:17;;;;;;;10.75;7.53;;;31.00;94.80;;;;;;5379063;26;19995;-69
2024/04/18 03:03:45;;;;;;;8.93;6.00;;;31.70;93.80;;;;;;5362227;26;19996;-67
2024/04/18 03:06:12;;;;;;;8.50;5.82;;;32.30;92.80;;;;;;5360323;26;20003;-68
2024/04/18 03:08:39;;;;;;;8.55;4.93;;;32.40;92.30;;;;;;5361233;26;19996;-69
2024/04/18 03:11:07;;;;;;;10.50;5.20;;;32.60;91.60;;;;;;5373659;26;21118;-69
2024/04/18 03:13:36;;;;;;;8.27;5.78;;;32.90;91.70;;;;;;5371822;26;20062;-67
2024/04/18 03:16:03;;;;;;;8.82;5.97;;;32.30;91.10;;;;;;5383370;26;20023;-66
2024/04/18 03:18:30;;;;;;;8.43;6.20;;;30.80;92.50;;;;;;5394613;26;19992;-68
2024/04/18 03:20:58;;;;;;;9.05;6.55;;;29.40;94.70;;;;;;5387331;26;19992;-67
2024/04/18 03:23:25;;;;;;;11.45;7.40;;;28.00;96.50;;;;;;5421249;26;20116;-67
2024/04/18 03:25:52;;;;;;;11.35;7.60;;;27.00;98.70;;;;;;5430403;26;20397;-67
2024/04/18 03:28:20;;;;;;;10.63;7.47;;;26.20;99.90;;;;;;5425648;26;20014;-68
2024/04/18 03:30:47;;;;;;;11.27;7.47;;;25.40;99.90;;;;;;5384511;26;20444;-69
2024/04/18 03:33:14;;;;;;;7.38;6.43;;;25.10;99.90;;;;;;5370741;26;20004;-67
2024/04/18 03:35:42;;;;;;;8.23;6.60;;;26.30;99.90;;;;;;5360934;26;19996;-67
2024/04/18 03:38:09;;;;;;;11.07;6.55;;;28.10;99.90;;;;;;5368109;26;20040;-67
2024/04/18 03:40:36;;;;;;;1430.32;281.15;;;30.00;96.90;;;;;;5362490;26;19996;-68
2024/04/18 03:43:04;;;;;;;418.60;77.72;;;31.30;94.10;;;;;;5392771;26;20004;-67
2024/04/18 03:45:32;;;;;;;135.05;28.63;;;31.20;93.50;;;;;;5394112;26;19999;-67
2024/04/18 03:48:00;;;;;;;43.50;18.48;;;30.90;93.10;;;;;;5429616;26;19995;-67
2024/04/18 03:50:27;;;;;;;24.98;8.73;;;30.90;93.20;;;;;;5383725;26;20000;-66
2024/04/18 03:52:54;;;;;;;18.65;7.35;;;30.60;92.50;;;;;;5361013;26;20027;-68
2024/04/18 03:55:22;;;;;;;29.38;9.85;;;29.30;94.00;;;;;;5375723;26;19999;-67
2024/04/18 03:57:49;;;;;;;14.55;8.45;;;28.10;95.70;;;;;;5380254;26;20000;-68
2024/04/18 04:00:16;;;;;;;12.88;8.63;;;27.10;97.30;;;;;;5371582;26;20014;-68
2024/04/18 04:02:43;;;;;;;17.42;10.15;;;26.30;98.80;;;;;;5377132;26;20011;-68
2024/04/18 04:05:11;;;;;;;15.70;10.05;;;25.40;99.70;;;;;;5387273;26;20004;-67
2024/04/18 04:07:38;;;;;;;19.38;10.18;;;24.60;99.90;;;;;;5395074;26;19995;-69
2024/04/18 04:10:05;;;;;;;15.25;8.45;;;24.00;99.90;;;;;;5394801;26;19999;-67
2024/04/18 04:12:36;;;;;;;9.20;8.30;;;23.60;99.90;;;;;;5390408;26;19995;-69
2024/04/18 04:15:04;;;;;;;18.52;10.35;;;23.20;99.90;;;;;;5393636;26;20010;-67
2024/04/18 04:17:31;;;;;;;27.70;11.30;;;23.00;99.90;;;;;;5418121;26;20332;-68
2024/04/18 04:19:59;;;;;;;24.95;13.52;;;22.80;99.90;;;;;;5395336;26;20023;-70
2024/04/18 04:22:26;;;;;;;20.63;17.52;;;22.60;99.90;;;;;;5391747;26;20673;-71
2024/04/18 04:24:53;;;;;;;18.85;14.48;;;22.50;99.90;;;;;;5394413;26;20093;-72
2024/04/18 04:27:20;;;;;;;18.08;14.35;;;22.40;99.90;;;;;;5393378;26;20431;-69
2024/04/18 04:29:48;;;;;;;16.25;14.50;;;22.30;99.90;;;;;;5366782;26;20011;-71
2024/04/18 04:32:21;;;;;;;17.75;13.88;;;22.30;99.90;;;;;;5375238;26;20000;-71
2024/04/18 04:34:49;;;;;;;17.13;14.55;;;22.30;99.90;;;;;;5400013;26;20010;-71
2024/04/18 04:37:17;;;;;;;12.65;11.25;;;22.60;99.90;;;;;;5392814;26;20003;-70
2024/04/18 04:39:48;;;;;;;17.73;10.10;;;23.90;99.90;;;;;;5390214;26;20007;-69
2024/04/18 04:42:15;;;;;;;12.35;7.80;;;25.70;99.90;;;;;;5418622;26;20003;-70
2024/04/18 04:44:42;;;;;;;8.38;7.45;;;27.70;99.90;;;;;;5379300;26;20003;-70
2024/04/18 04:47:10;;;;;;;8.93;6.63;;;29.20;99.90;;;;;;5391176;26;20014;-67
2024/04/18 04:49:37;;;;;;;9.10;7.07;;;30.60;99.90;;;;;;5392610;26;20238;-70
2024/04/18 04:52:05;;;;;;;10.52;7.75;;;32.00;97.50;;;;;;5391729;26;20013;-69
2024/04/18 04:54:33;;;;;;;9.88;6.45;;;31.70;96.90;;;;;;5383000;26;20000;-70
2024/04/18 04:57:00;;;;;;;10.18;7.72;;;31.50;96.70;;;;;;5401460;26;19999;-70
2024/04/18 04:59:28;;;;;;;9.82;7.25;;;30.50;97.00;;;;;;5428075;26;19999;-70
2024/04/18 05:01:55;;;;;;;8.10;6.28;;;29.00;98.10;;;;;;5406932;26;20000;-71
2024/04/18 05:04:22;;;;;;;10.25;7.32;;;27.50;99.90;;;;;;5388285;26;20213;-69
2024/04/18 05:06:49;;;;;;;9.30;6.68;;;26.50;99.90;;;;;;5395341;26;20354;-71
2024/04/18 05:09:21;;;;;;;9.07;8.02;;;25.40;99.90;;;;;;5393894;26;20003;-71
2024/04/18 05:11:49;;;;;;;13.35;8.85;;;24.60;99.90;;;;;;5394135;26;19995;-72
2024/04/18 05:14:16;;;;;;;11.02;9.07;;;23.80;99.90;;;;;;5390440;26;20784;-70
2024/04/18 05:16:43;;;;;;;10.82;9.70;;;23.20;99.90;;;;;;5392909;26;20283;-71
2024/04/18 05:19:11;;;;;;;14.85;10.25;;;22.80;99.90;;;;;;5390694;26;20010;-72
2024/04/18 05:21:38;;;;;;;13.48;9.02;;;22.40;99.90;;;;;;5396468;26;20509;-69
2024/04/18 05:24:06;;;;;;;13.85;10.50;;;21.90;99.90;;;;;;5390088;26;19992;-70
2024/04/18 05:26:33;;;;;;;13.38;9.80;;;21.50;99.90;;;;;;5381913;26;19995;-67
2024/04/18 05:31:50;;;;;;;12.48;10.27;;;21.30;99.90;;;;;;5385624;26;20015;-72
2024/04/18 05:34:17;;;;;;;14.80;10.93;;;21.30;99.90;;;;;;5364639;26;19995;-70
2024/04/18 05:36:48;;;;;;;14.88;12.02;;;21.30;99.90;;;;;;5393104;26;20018;-69
2024/04/18 05:39:15;;;;;;;16.48;12.05;;;21.30;99.90;;;;;;5392932;26;20006;-68
2024/04/18 05:41:42;;;;;;;15.10;11.27;;;21.30;99.90;;;;;;5391632;26;20004;-67
2024/04/18 05:44:09;;;;;;;14.32;10.95;;;21.30;99.90;;;;;;5393963;26;20012;-67
2024/04/18 05:46:37;;;;;;;15.90;11.57;;;21.20;99.90;;;;;;5391598;26;19999;-68
2024/04/18 05:49:05;;;;;;;10.98;9.88;;;21.30;99.90;;;;;;5374431;26;20023;-72
2024/04/18 05:51:33;;;;;;;15.38;9.95;;;22.00;99.90;;;;;;5378489;26;20053;-74
2024/04/18 05:54:00;;;;;;;18.92;9.55;;;23.10;99.90;;;;;;5393693;26;20048;-73
2024/04/18 05:56:28;;;;;;;9.18;7.38;;;23.90;99.90;;;;;;5385663;26;20082;-74
2024/04/18 05:58:55;;;;;;;8.43;6.97;;;24.90;99.90;;;;;;5392107;26;20004;-72
2024/04/18 06:01:22;;;;;;;9.00;7.45;;;25.10;99.90;;;;;;5392112;26;20923;-73
2024/04/18 06:03:49;;;;;;;8.90;7.45;;;25.30;99.90;;;;;;5384131;26;20028;-69
2024/04/18 06:06:17;;;;;;;10.07;7.43;;;25.70;99.90;;;;;;5386207;26;20015;-70
2024/04/18 06:08:44;;;;;;;8.35;7.32;;;26.40;99.90;;;;;;5412493;26;20000;-71
2024/04/18 06:11:11;;;;;;;7.75;7.05;;;26.60;99.90;;;;;;5382267;26;20014;-69
2024/04/18 06:13:39;;;;;;;10.43;7.45;;;26.40;99.90;;;;;;5387117;26;20015;-70
2024/04/18 06:16:07;;;;;;;15.48;8.95;;;25.90;99.90;;;;;;5387464;26;19995;-70
2024/04/18 06:18:34;;;;;;;11.93;7.25;;;25.60;99.90;;;;;;5382211;26;20068;-72
2024/04/18 06:21:02;;;;;;;13.77;8.07;;;25.20;99.90;;;;;;5381831;26;20000;-69
2024/04/18 06:23:29;;;;;;;11.35;8.55;;;25.00;99.90;;;;;;5383643;26;20004;-70
2024/04/18 06:25:56;;;;;;;9.43;6.80;;;25.10;99.90;;;;;;5380080;26;19995;-70
2024/04/18 06:28:24;;;;;;;11.70;6.85;;;25.50;99.90;;;;;;5372008;26;20001;-70
2024/04/18 06:30:52;;;;;;;8.20;6.45;;;26.30;99.90;;;;;;5396008;26;20046;-69
2024/04/18 06:33:19;;;;;;;8.25;5.68;;;26.70;99.90;;;;;;5385635;26;20015;-69
2024/04/18 06:35:46;;;;;;;6.45;5.28;;;27.10;99.90;;;;;;5380411;26;20032;-70
2024/04/18 06:38:13;;;;;;;8.90;6.43;;;27.00;99.90;;;;;;5386046;26;20004;-71
2024/04/18 06:40:41;;;;;;;8.40;6.60;;;26.70;99.90;;;;;;5393097;26;19999;-70
2024/04/18 06:43:08;;;;;;;7.13;5.72;;;26.60;99.90;;;;;;5418340;26;20014;-72
2024/04/18 06:45:38;;;;;;;8.88;6.20;;;26.60;99.90;;;;;;5401782;26;20458;-72
2024/04/18 06:48:09;;;;;;;7.45;6.25;;;26.40;99.90;;;;;;5395880;26;19995;-71
2024/04/18 06:50:37;;;;;;;8.13;6.18;;;25.70;99.90;;;;;;5394934;26;20003;-71
2024/04/18 06:53:05;;;;;;;7.50;6.68;;;25.00;99.90;;;;;;5447453;26;20355;-71
2024/04/18 06:55:34;;;;;;;11.38;8.48;;;24.30;99.90;;;;;;5401038;26;20018;-70
2024/04/18 06:58:01;;;;;;;8.35;7.22;;;23.70;99.90;;;;;;5382999;26;20010;-71
2024/04/18 07:00:29;;;;;;;8.45;7.55;;;23.10;99.90;;;;;;5377465;26;20000;-71
2024/04/18 07:02:56;;;;;;;10.20;7.72;;;22.60;99.90;;;;;;5375934;26;20016;-71
2024/04/18 07:05:23;;;;;;;8.18;7.38;;;22.20;99.90;;;;;;5380949;26;20014;-69
2024/04/18 07:07:54;;;;;;;11.57;8.38;;;21.90;99.90;;;;;;5368588;26;20029;-69
2024/04/18 07:10:21;;;;;;;9.88;8.68;;;21.60;99.90;;;;;;5384202;26;19999;-68
2024/04/18 07:12:49;;;;;;;11.50;8.85;;;21.40;99.90;;;;;;5389481;26;19999;-71
2024/04/18 07:15:16;;;;;;;12.65;8.77;;;21.20;99.90;;;;;;5366169;26;20441;-70
2024/04/18 07:17:44;;;;;;;13.48;8.73;;;21.00;99.90;;;;;;5357439;26;19997;-69
2024/04/18 07:20:11;;;;;;;13.13;9.52;;;20.80;99.90;;;;;;5387148;26;20003;-70
2024/04/18 07:22:39;;;;;;;11.38;9.63;;;20.60;99.90;;;;;;5361747;26;20007;-70
2024/04/18 07:25:06;;;;;;;10.65;9.65;;;20.40;99.90;;;;;;5359460;26;20008;-70
2024/04/18 07:27:34;;;;;;;13.38;10.55;;;20.30;99.90;;;;;;5360945;26;20007;-70
2024/04/18 07:30:01;;;;;;;11.95;9.52;;;20.20;99.90;;;;;;5358910;26;19996;-71
2024/04/18 07:32:28;;;;;;;14.77;11.45;;;20.10;99.90;;;;;;5360850;26;19996;-71
2024/04/18 07:34:56;;;;;;;11.88;10.10;;;20.00;99.90;;;;;;5358011;26;20329;-70
2024/04/18 07:37:23;;;;;;;16.65;10.65;;;19.80;99.90;;;;;;5389715;26;20325;-69
2024/04/18 07:39:51;;;;;;;12.60;10.50;;;19.70;99.90;;;;;;5358998;26;19992;-71
2024/04/18 07:42:19;;;;;;;10.98;9.43;;;19.70;99.90;;;;;;5362458;26;20023;-70
2024/04/18 07:44:46;;;;;;;13.38;10.68;;;19.50;99.90;;;;;;5360895;26;19992;-71
2024/04/18 07:47:13;;;;;;;12.32;9.68;;;19.50;99.90;;;;;;5361140;26;19992;-71
2024/04/18 07:49:41;;;;;;;11.65;10.43;;;19.40;99.90;;;;;;5361096;26;20032;-69
2024/04/18 07:52:11;;;;;;;17.60;11.02;;;19.40;99.90;;;;;;5359382;26;20023;-69
2024/04/18 07:54:38;;;;;;;16.63;10.52;;;19.30;99.90;;;;;;5360639;26;20025;-69
2024/04/18 07:57:06;;;;;;;13.73;11.00;;;19.30;99.90;;;;;;5388264;26;20226;-70
2024/04/18 07:59:33;;;;;;;12.40;10.35;;;19.20;99.90;;;;;;5361942;26;20003;-70
2024/04/18 08:02:01;;;;;;;13.82;10.95;;;19.20;99.90;;;;;;5359598;26;20008;-69
2024/04/18 08:04:28;;;;;;;14.98;11.70;;;19.20;99.90;;;;;;5361568;26;20038;-70
2024/04/18 08:06:56;;;;;;;13.80;12.30;;;19.20;99.90;;;;;;5359431;26;19992;-69
2024/04/18 08:09:23;;;;;;;15.23;12.48;;;19.00;99.90;;;;;;5361226;26;20299;-69
2024/04/18 08:11:50;;;;;;;13.70;12.40;;;19.00;99.90;;;;;;5360603;26;19992;-70
2024/04/18 08:14:17;;;;;;;14.75;11.70;;;19.00;99.90;;;;;;5360288;26;20011;-72
2024/04/18 08:16:46;;;;;;;12.57;11.18;;;18.90;99.90;;;;;;5361144;26;20453;-70
2024/04/18 08:19:13;;;;;;;12.27;11.15;;;19.00;99.90;;;;;;5359541;26;20000;-70
2024/04/18 08:21:40;;;;;;;12.80;11.35;;;19.00;99.90;;;;;;5360593;26;20006;-69
2024/04/18 08:24:09;;;;;;;15.70;12.00;;;18.90;99.90;;;;;;5359764;26;20004;-70
2024/04/18 08:26:36;;;;;;;14.55;11.77;;;18.90;99.90;;;;;;5361002;26;19996;-71
2024/04/18 08:29:04;;;;;;;12.30;11.02;;;18.90;99.90;;;;;;5359554;26;20007;-70
2024/04/18 08:31:36;;;;;;;12.73;10.98;;;18.80;99.90;;;;;;5359810;26;20004;-69
2024/04/18 08:34:03;;;;;;;;;;;18.80;99.90;;;;;;5359653;26;19996;-70
2024/04/18 08:36:31;;;;;;;14.35;12.23;;;18.80;99.90;;;;;;5361239;26;19955;-70
2024/04/18 08:38:58;;;;;;;13.82;11.88;;;18.70;99.90;;;;;;5359069;26;20000;-70
2024/04/18 08:41:25;;;;;;;14.45;12.93;;;18.70;99.90;;;;;;5360770;26;19996;-70
2024/04/18 08:43:53;;;;;;;16.88;13.25;;;18.70;99.90;;;;;;5360050;26;20004;-72
2024/04/18 08:46:21;;;;;;;15.75;12.73;;;18.60;99.90;;;;;;5359725;26;20000;-70
2024/04/18 08:48:49;;;;;;;16.25;13.13;;;18.60;99.90;;;;;;5360571;26;20431;-69
2024/04/18 08:51:17;;;;;;;13.00;11.65;;;18.60;99.90;;;;;;5359146;26;20058;-69
2024/04/18 08:53:45;;;;;;;14.45;13.05;;;18.50;99.90;;;;;;5360210;26;19992;-72
2024/04/18 08:56:15;;;;;;;15.82;13.57;;;18.50;99.90;;;;;;5358961;26;19992;-70
2024/04/18 08:58:42;;;;;;;16.60;14.25;;;18.50;99.90;;;;;;5361021;26;20003;-69
2024/04/18 09:01:10;;;;;;;14.65;12.93;;;18.40;99.90;;;;;;5358816;26;19993;-69
2024/04/18 09:03:38;;;;;;;20.40;17.90;;;18.40;99.90;;;;;;5360745;26;20060;-69
2024/04/18 09:06:05;;;;;;;17.50;15.18;;;18.40;99.90;;;;;;5357856;26;20043;-71
2024/04/18 09:08:33;;;;;;;15.05;13.13;;;18.30;99.90;;;;;;5360288;26;19993;-71
2024/04/18 09:11:00;;;;;;;16.77;13.63;;;18.30;99.90;;;;;;5360302;26;19992;-71
2024/04/18 09:13:27;;;;;;;16.88;13.93;;;18.30;99.90;;;;;;5360295;26;19992;-70
2024/04/18 09:15:54;;;;;;;15.05;12.15;;;18.30;99.90;;;;;;5360975;26;20038;-70
2024/04/18 09:18:26;;;;;;;16.73;13.52;;;18.20;99.90;;;;;;5357485;26;20003;-69
2024/04/18 09:20:53;;;;;;;14.82;12.65;;;18.30;99.90;;;;;;5361027;26;20348;-70
2024/04/18 09:23:22;;;;;;;14.98;12.23;;;18.20;99.90;;;;;;5358033;26;19996;-70
2024/04/18 09:25:56;;;;;;;14.10;11.80;;;18.20;99.90;;;;;;5360239;26;20007;-70
2024/04/18 09:28:23;;;;;;;14.48;11.18;;;18.10;99.90;;;;;;5357901;26;20233;-71
2024/04/18 09:30:53;;;;;;;15.68;12.15;;;18.10;99.90;;;;;;5360336;26;20008;-71
2024/04/18 09:33:23;;;;;;;14.93;11.88;;;18.10;99.90;;;;;;5357600;26;19996;-70
2024/04/18 09:35:59;;;;;;;14.32;11.98;;;18.10;99.90;;;;;;5360343;26;20091;-68
2024/04/18 09:38:33;;;;;;;14.13;12.43;;;18.10;99.90;;;;;;5357102;26;20730;-70
2024/04/18 09:41:11;;;;;;;13.73;12.02;;;18.00;99.90;;;;;;5360765;26;20007;-70
2024/04/18 09:43:58;;;;;;;17.67;12.38;;;18.00;99.90;;;;;;5363816;26;20050;-69
2024/04/18 09:46:28;;;;;;;16.42;12.27;;;18.00;99.90;;;;;;5360792;26;20031;-69
2024/04/18 09:48:56;;;;;;;20.10;14.30;;;18.00;99.90;;;;;;5363743;26;20238;-70
2024/04/18 09:51:25;;;;;;;20.25;15.63;;;17.90;99.90;;;;;;5360715;26;20130;-71
2024/04/18 09:53:52;;;;;;;26.77;22.77;;;17.90;99.90;;;;;;5363641;26;20340;-71
2024/04/18 09:56:23;;;;;;;26.23;20.08;;;17.80;99.90;;;;;;5361259;26;20039;-70
2024/04/18 09:58:52;;;;;;;28.92;19.33;;;17.80;99.90;;;;;;5363851;26;20004;-69
2024/04/18 10:01:20;;;;;;;28.92;18.45;;;17.80;99.90;;;;;;5361128;26;19992;-71
2024/04/18 10:03:48;;;;;;;20.73;17.52;;;17.80;99.90;;;;;;5363612;26;20223;-70
2024/04/18 10:06:18;;;;;;;22.20;16.60;;;17.80;99.90;;;;;;5360710;26;20049;-70
2024/04/18 10:08:52;;;;;;;18.85;14.02;;;17.80;99.90;;;;;;5362481;26;19996;-72
2024/04/18 10:11:24;;;;;;;20.48;14.95;;;17.70;99.90;;;;;;5361024;26;20004;-70
2024/04/18 10:13:51;;;;;;;16.05;12.70;;;17.80;99.90;;;;;;5364073;26;20313;-69
2024/04/18 10:16:21;;;;;;;17.48;14.80;;;17.70;99.90;;;;;;5360761;26;20008;-71
2024/04/18 10:18:49;;;;;;;15.43;13.75;;;17.70;99.90;;;;;;5362840;26;20077;-70
2024/04/18 10:21:17;;;;;;;17.90;14.15;;;17.60;99.90;;;;;;5360633;26;20000;-71
2024/04/18 10:23:51;;;;;;;16.88;14.13;;;17.60;99.90;;;;;;5363048;26;20436;-71
2024/04/18 10:26:20;;;;;;;15.13;13.50;;;17.70;99.90;;;;;;5360582;26;20458;-70
2024/04/18 10:28:51;;;;;;;14.73;13.23;;;17.60;99.90;;;;;;5361933;26;20403;-69
2024/04/18 10:31:19;;;;;;;17.13;13.13;;;17.60;99.90;;;;;;5361606;26;20012;-71
2024/04/18 10:33:49;;;;;;;13.27;11.93;;;17.60;99.90;;;;;;5363029;26;20274;-70
2024/04/18 10:36:17;;;;;;;18.35;11.93;;;17.50;99.90;;;;;;5361523;26;20070;-73
2024/04/18 10:38:46;;;;;;;13.98;12.57;;;17.40;99.90;;;;;;5362875;26;19996;-68
2024/04/18 10:41:20;;;;;;;16.05;13.45;;;17.40;99.90;;;;;;5362639;26;20326;-69
2024/04/18 10:43:48;;;;;;;17.42;13.82;;;17.50;99.90;;;;;;5362493;26;20008;-70
2024/04/18 10:46:17;;;;;;;16.48;12.13;;;17.40;99.90;;;;;;5362158;26;20004;-70
2024/04/18 10:48:45;;;;;;;14.63;12.38;;;17.40;99.90;;;;;;5361944;26;19996;-68
2024/04/18 10:51:13;;;;;;;14.60;12.73;;;17.40;99.90;;;;;;5362701;26;20000;-72
2024/04/18 10:53:40;;;;;;;13.95;12.57;;;17.40;99.90;;;;;;5360852;26;20329;-69
2024/04/18 10:56:07;;;;;;;14.75;12.95;;;17.30;99.90;;;;;;5361758;26;20000;-68
2024/04/18 10:58:35;;;;;;;14.60;13.20;;;17.30;99.90;;;;;;5359673;26;20008;-70
2024/04/18 11:01:02;;;;;;;15.15;11.98;;;17.30;99.90;;;;;;5362909;26;20000;-69
2024/04/18 11:03:31;;;;;;;13.55;12.10;;;17.20;99.90;;;;;;5360649;26;20047;-69
2024/04/18 11:06:00;;;;;;;17.15;13.07;;;17.20;99.90;;;;;;5362814;26;19996;-69
2024/04/18 11:08:28;;;;;;;15.13;12.68;;;17.20;99.90;;;;;;5358396;26;20024;-69
2024/04/18 11:10:56;;;;;;;14.32;12.88;;;17.10;99.90;;;;;;5361868;26;20330;-68
2024/04/18 11:13:23;;;;;;;15.45;13.15;;;17.10;99.90;;;;;;5360696;26;19996;-68
2024/04/18 11:15:50;;;;;;;14.45;12.95;;;17.10;99.90;;;;;;5362536;26;19997;-69
2024/04/18 11:18:18;;;;;;;15.50;13.43;;;17.20;99.90;;;;;;5362303;26;20345;-70
2024/04/18 11:20:45;;;;;;;15.13;13.63;;;17.10;99.90;;;;;;5360829;26;20440;-69
2024/04/18 11:23:12;;;;;;;14.95;13.40;;;17.00;99.90;;;;;;5362096;26;20329;-68
2024/04/18 11:25:41;;;;;;;16.63;12.93;;;17.10;99.90;;;;;;5359583;26;20445;-69
2024/04/18 11:28:09;;;;;;;17.65;12.73;;;17.00;99.90;;;;;;5362912;26;20430;-69
2024/04/18 11:30:43;;;;;;;19.05;17.00;;;17.00;99.90;;;;;;5359886;26;19996;-70
2024/04/18 11:33:10;;;;;;;17.23;13.73;;;17.00;99.90;;;;;;5362298;26;20065;-71
2024/04/18 11:35:38;;;;;;;15.15;12.93;;;17.00;99.90;;;;;;5360016;26;20011;-72
2024/04/18 11:38:08;;;;;;;15.40;13.40;;;16.90;99.90;;;;;;5362178;26;20007;-70
2024/04/18 11:40:36;;;;;;;16.33;13.68;;;16.90;99.90;;;;;;5360830;26;20008;-70
2024/04/18 11:43:03;;;;;;;15.00;13.35;;;16.90;99.90;;;;;;5362222;26;20032;-69
2024/04/18 11:45:30;;;;;;;14.65;13.15;;;16.80;99.90;;;;;;5359278;26;19996;-70
2024/04/18 11:47:58;;;;;;;15.32;13.18;;;16.90;99.90;;;;;;5361618;26;19996;-70
2024/04/18 11:50:25;;;;;;;14.50;12.38;;;16.80;99.90;;;;;;5361327;26;20010;-70
2024/04/18 11:52:54;;;;;;;14.25;12.85;;;16.80;99.90;;;;;;5360962;26;19996;-71
2024/04/18 11:55:22;;;;;;;16.80;14.27;;;16.80;99.90;;;;;;5390221;26;20008;-70
2024/04/18 11:57:49;;;;;;;16.65;14.43;;;16.70;99.90;;;;;;5359658;26;20004;-69
2024/04/18 12:00:17;;;;;;;17.38;14.48;;;16.70;99.90;;;;;;5361390;26;20072;-70
2024/04/18 12:02:44;;;;;;;14.65;12.35;;;16.70;99.90;;;;;;5359429;26;20011;-70
2024/04/18 12:05:11;;;;;;;15.02;13.45;;;16.70;99.90;;;;;;5361581;26;20007;-69
2024/04/18 12:07:39;;;;;;;17.80;13.82;;;16.70;99.90;;;;;;5360079;26;20012;-71
2024/04/18 12:10:06;;;;;;;17.50;13.18;;;16.60;99.90;;;;;;5361534;26;20046;-70
2024/04/18 12:12:34;;;;;;;16.13;13.05;;;16.70;99.90;;;;;;5359513;26;20000;-71
2024/04/18 12:15:01;;;;;;;15.30;13.73;;;16.60;99.90;;;;;;5361469;26;20000;-70
2024/04/18 12:17:28;;;;;;;16.45;14.02;;;16.60;99.90;;;;;;5360702;26;20403;-68
2024/04/18 12:19:56;;;;;;;15.60;13.68;;;16.60;99.90;;;;;;5360667;26;19996;-70
2024/04/18 12:22:23;;;;;;;15.18;13.35;;;16.60;99.90;;;;;;5361752;26;19996;-69
2024/04/18 12:24:50;;;;;;;15.48;12.73;;;16.60;99.90;;;;;;5358567;26;20281;-71
2024/04/18 12:27:18;;;;;;;17.80;12.90;;;16.60;99.90;;;;;;5361187;26;19996;-71
2024/04/18 12:29:46;;;;;;;14.77;13.20;;;16.60;99.90;;;;;;5359869;26;19996;-68
2024/04/18 12:32:21;;;;;;;14.82;13.30;;;16.50;99.90;;;;;;5361276;26;20080;-71
2024/04/18 12:34:50;;;;;;;14.50;12.90;;;16.50;99.90;;;;;;5357130;26;20278;-69
2024/04/18 12:37:17;;;;;;;16.70;12.55;;;16.60;99.90;;;;;;5361938;26;20437;-69
2024/04/18 12:39:48;;;;;;;16.10;13.35;;;16.60;99.90;;;;;;5358833;26;20000;-70